Terminal Aerodrome Forecast
Issued by NWS

Home | Current Version | Previous Version | Text Only | Print | Product List | Glossary On
Versions: 1 2 3 4 5 6 7 8 9 10 11 12 13 14 15
000
FTUS45 KBYZ 242320
TAFLVM
TAF
KLVM 242320Z 2500/2524 05010KT P6SM VCSH SCT040 SCT100 BKN200
     FM250700 26007KT P6SM VCSH FEW035 BKN050
     FM251800 27012KT P6SM VCTS BKN040CB OVC100=

USA.gov is the U.S. government's official web portal to all federal, state and local government web resources and services.